createdAt,value
2019-05-15T00:00:00.832Z,6.60
2019-05-15T00:02:32.823Z,6.60
2019-05-15T00:05:04.886Z,6.30
2019-05-15T00:07:39.239Z,6.30
2019-05-15T00:10:10.578Z,6.40
2019-05-15T00:12:42.463Z,6.50
2019-05-15T00:15:14.447Z,6.50
2019-05-15T00:17:48.338Z,6.40
2019-05-15T00:20:20.964Z,6.30
2019-05-15T00:22:52.917Z,6.10
2019-05-15T00:25:25.251Z,6.10
2019-05-15T00:27:58.259Z,6.00
2019-05-15T00:30:30.193Z,5.90
2019-05-15T00:33:02.301Z,5.80
2019-05-15T00:35:34.329Z,5.90
2019-05-15T00:38:09.042Z,5.80
2019-05-15T00:40:40.453Z,5.80
2019-05-15T00:43:12.869Z,5.90
2019-05-15T00:45:44.686Z,5.60
2019-05-15T00:48:18.355Z,5.60
2019-05-15T00:50:50.846Z,5.60
2019-05-15T00:53:22.758Z,5.50
2019-05-15T00:55:54.633Z,5.50
2019-05-15T00:58:28.355Z,5.40
2019-05-15T01:01:00.319Z,5.60
2019-05-15T01:03:32.592Z,5.60
2019-05-15T01:06:04.451Z,5.30
2019-05-15T01:08:36.340Z,5.10
2019-05-15T01:11:09.161Z,5.10
2019-05-15T01:13:41.797Z,5.20
2019-05-15T01:16:13.649Z,5.20
2019-05-15T01:18:46.209Z,5.30
2019-05-15T01:21:18.746Z,4.90
2019-05-15T01:23:50.848Z,4.90
2019-05-15T01:26:22.947Z,5.00
2019-05-15T01:28:55.282Z,5.10
2019-05-15T01:31:28.507Z,5.10
2019-05-15T01:34:00.865Z,5.20
2019-05-15T01:36:33.032Z,5.10
2019-05-15T01:39:05.342Z,5.00
2019-05-15T01:41:38.713Z,4.90
2019-05-15T01:44:11.117Z,5.10
2019-05-15T01:46:43.137Z,5.20
2019-05-15T01:49:15.346Z,5.00
2019-05-15T01:51:47.950Z,5.00
2019-05-15T01:54:20.227Z,5.00
2019-05-15T01:56:52.244Z,4.80
2019-05-15T01:59:24.778Z,4.90
2019-05-15T02:01:58.978Z,4.90
2019-05-15T02:04:30.599Z,4.80
2019-05-15T02:07:05.423Z,4.90
2019-05-15T02:09:38.564Z,4.90
2019-05-15T02:12:10.572Z,4.80
2019-05-15T02:14:42.658Z,4.70
2019-05-15T02:17:14.479Z,4.70
2019-05-15T02:19:48.445Z,4.70
2019-05-15T02:22:20.491Z,4.80
2019-05-15T02:24:52.796Z,4.80
2019-05-15T02:27:24.620Z,4.90
2019-05-15T02:30:15.272Z,4.70
2019-05-15T02:32:30.434Z,4.70
2019-05-15T02:35:02.574Z,4.50
2019-05-15T02:37:34.602Z,4.50
2019-05-15T02:40:09.667Z,4.60
2019-05-15T02:42:41.456Z,4.30
2019-05-15T02:45:13.505Z,4.30
2019-05-15T02:47:48.645Z,4.40
2019-05-15T02:50:20.408Z,4.50
2019-05-15T02:52:52.721Z,4.30
2019-05-15T02:55:24.639Z,4.30
2019-05-15T02:57:59.058Z,4.30
2019-05-15T03:00:41.760Z,4.40
2019-05-15T03:03:04.525Z,4.50
2019-05-15T03:05:40.275Z,4.60
2019-05-15T03:08:10.735Z,4.60
2019-05-15T03:10:42.530Z,4.60
2019-05-15T03:13:14.624Z,4.50
2019-05-15T03:15:48.965Z,4.60
2019-05-15T03:18:20.430Z,4.60
2019-05-15T03:20:52.946Z,4.60
2019-05-15T03:23:25.172Z,4.70
2019-05-15T03:26:02.015Z,4.70
2019-05-15T03:28:31.360Z,4.50
2019-05-15T03:31:17.861Z,4.30
2019-05-15T03:33:44.935Z,4.20
2019-05-15T03:36:13.812Z,4.30
2019-05-15T03:38:45.808Z,4.40
2019-05-15T03:41:19.477Z,4.50
2019-05-15T03:43:52.062Z,4.50
2019-05-15T03:46:23.884Z,4.70
2019-05-15T03:48:55.728Z,4.60
2019-05-15T03:51:28.957Z,4.70
2019-05-15T03:54:01.214Z,4.80
2019-05-15T03:56:33.333Z,4.50
2019-05-15T03:59:09.036Z,4.50
2019-05-15T04:01:43.694Z,4.60
2019-05-15T04:04:13.638Z,4.70
2019-05-15T04:06:45.525Z,4.50
2019-05-15T04:09:18.971Z,4.50
2019-05-15T04:11:51.223Z,4.50
2019-05-15T04:14:23.289Z,4.40
2019-05-15T04:16:55.559Z,4.40
2019-05-15T04:19:29.720Z,4.40
2019-05-15T04:22:01.443Z,4.30
2019-05-15T04:24:33.866Z,4.30
2019-05-15T04:27:10.476Z,4.30
2019-05-15T04:29:40.718Z,4.30
2019-05-15T04:32:12.596Z,4.40
2019-05-15T04:34:44.789Z,4.70
2019-05-15T04:37:18.965Z,4.60
2019-05-15T04:39:50.876Z,4.70
2019-05-15T04:42:22.896Z,4.60
2019-05-15T04:44:54.675Z,4.80
2019-05-15T04:47:29.923Z,4.70
2019-05-15T04:50:00.318Z,4.60
2019-05-15T04:52:32.324Z,4.90
2019-05-15T04:55:04.537Z,5.00
2019-05-15T04:57:40.046Z,4.90
2019-05-15T05:00:11.606Z,4.70
2019-05-15T05:02:43.668Z,4.50
2019-05-15T05:05:18.778Z,4.60
2019-05-15T05:07:49.593Z,4.70
2019-05-15T05:10:21.516Z,4.80
2019-05-15T05:12:53.827Z,4.70
2019-05-15T05:15:25.569Z,4.60
2019-05-15T05:17:58.570Z,4.80
2019-05-15T05:20:30.824Z,5.10
2019-05-15T05:23:02.876Z,5.00
2019-05-15T05:25:34.733Z,4.80
2019-05-15T05:28:08.581Z,4.90
2019-05-15T05:30:40.427Z,5.00
2019-05-15T05:33:12.432Z,5.10
2019-05-15T05:35:44.570Z,4.90
2019-05-15T05:38:19.236Z,4.90
2019-05-15T05:40:50.366Z,5.20
2019-05-15T05:43:22.397Z,5.50
2019-05-15T05:45:54.317Z,5.60
2019-05-15T05:48:29.097Z,5.50
2019-05-15T05:51:00.328Z,5.50
2019-05-15T05:53:32.777Z,5.40
2019-05-15T05:56:04.788Z,5.50
2019-05-15T05:58:38.980Z,5.70
2019-05-15T06:01:10.604Z,5.70
2019-05-15T06:03:42.691Z,5.80
2019-05-15T06:06:14.529Z,6.10
2019-05-15T06:08:48.019Z,6.20
2019-05-15T06:11:20.743Z,6.50
2019-05-15T06:13:52.865Z,6.60
2019-05-15T06:16:24.732Z,6.70
2019-05-15T06:18:58.671Z,6.80
2019-05-15T06:21:30.886Z,6.90
2019-05-15T06:24:05.228Z,7.00
2019-05-15T06:26:38.574Z,7.20
2019-05-15T06:29:10.663Z,7.40
2019-05-15T06:31:42.495Z,7.50
2019-05-15T06:34:14.572Z,7.70
2019-05-15T06:36:48.601Z,7.70
2019-05-15T06:39:20.534Z,7.70
2019-05-15T06:41:52.375Z,7.90
2019-05-15T06:44:24.116Z,8.20
2019-05-15T06:46:58.585Z,7.80
2019-05-15T06:49:30.029Z,8.30
2019-05-15T06:52:01.914Z,8.30
2019-05-15T06:54:33.667Z,8.50
2019-05-15T06:57:05.539Z,8.50
2019-05-15T06:59:38.909Z,9.10
2019-05-15T07:02:11.104Z,9.30
2019-05-15T07:04:43.051Z,9.10
2019-05-15T07:07:15.286Z,9.50
2019-05-15T07:09:48.619Z,9.50
2019-05-15T07:12:20.996Z,9.60
2019-05-15T07:14:53.107Z,9.60
2019-05-15T07:17:25.212Z,9.80
2019-05-15T07:19:59.178Z,9.80
2019-05-15T07:22:30.939Z,10.00
2019-05-15T07:25:03.085Z,10.10
2019-05-15T07:27:34.933Z,10.10
2019-05-15T07:30:12.054Z,10.00
2019-05-15T07:32:43.099Z,10.10
2019-05-15T07:35:15.356Z,10.10
2019-05-15T07:37:47.856Z,10.20
2019-05-15T07:40:20.821Z,10.40
2019-05-15T07:42:53.034Z,10.60
2019-05-15T07:45:25.022Z,10.70
2019-05-15T07:47:58.488Z,10.80
2019-05-15T07:50:30.598Z,11.10
2019-05-15T07:53:03.088Z,11.10
2019-05-15T07:55:34.970Z,11.20
2019-05-15T07:58:08.540Z,11.20
2019-05-15T08:00:40.933Z,11.40
2019-05-15T08:03:12.716Z,11.40
2019-05-15T08:05:56.172Z,11.20
2019-05-15T08:08:20.351Z,11.00
2019-05-15T08:10:52.484Z,10.90
2019-05-15T08:13:24.766Z,11.00
2019-05-15T08:15:58.004Z,10.80
2019-05-15T08:18:30.115Z,11.00
2019-05-15T08:21:02.030Z,11.20
2019-05-15T08:23:33.968Z,11.40
2019-05-15T08:26:05.833Z,11.70
2019-05-15T08:28:38.579Z,11.80
2019-05-15T08:31:10.637Z,12.00
2019-05-15T08:33:43.723Z,12.30
2019-05-15T08:36:15.558Z,12.10
2019-05-15T08:38:48.647Z,11.90
2019-05-15T08:41:20.703Z,11.70
2019-05-15T08:43:53.217Z,11.50
2019-05-15T08:46:27.863Z,12.00
2019-05-15T08:48:59.448Z,12.20
2019-05-15T08:51:31.554Z,12.50
2019-05-15T08:54:03.564Z,12.60
2019-05-15T08:56:35.608Z,12.60
2019-05-15T08:59:08.821Z,12.70
2019-05-15T09:01:40.821Z,12.60
2019-05-15T09:04:26.668Z,12.50
2019-05-15T09:06:49.455Z,12.60
2019-05-15T09:09:20.468Z,12.70
2019-05-15T09:11:52.372Z,12.70
2019-05-15T09:14:24.297Z,12.70
2019-05-15T09:16:58.243Z,12.80
2019-05-15T09:19:32.258Z,12.00
2019-05-15T09:22:04.320Z,11.80
2019-05-15T09:24:37.925Z,12.10
2019-05-15T09:27:10.439Z,11.90
2019-05-15T09:29:42.393Z,12.20
2019-05-15T09:32:14.456Z,12.50
2019-05-15T09:34:51.765Z,12.80
2019-05-15T09:37:20.076Z,13.20
2019-05-15T09:39:52.246Z,13.20
2019-05-15T09:42:24.190Z,13.40
2019-05-15T09:44:58.210Z,13.60
2019-05-15T09:47:30.025Z,13.70
2019-05-15T09:50:02.027Z,13.60
2019-05-15T09:52:33.819Z,13.60
2019-05-15T09:55:08.615Z,13.90
2019-05-15T09:57:40.181Z,13.90
2019-05-15T10:00:12.768Z,14.00
2019-05-15T10:02:45.003Z,13.40
2019-05-15T10:05:18.737Z,13.70
2019-05-15T10:07:50.927Z,13.90
2019-05-15T10:10:22.830Z,13.60
2019-05-15T10:12:54.742Z,14.00
2019-05-15T10:15:26.908Z,13.80
2019-05-15T10:17:59.683Z,13.60
2019-05-15T10:20:32.058Z,13.30
2019-05-15T10:23:03.998Z,13.60
2019-05-15T10:25:36.028Z,13.50
2019-05-15T10:28:09.955Z,13.40
2019-05-15T10:30:42.456Z,13.30
2019-05-15T10:33:14.533Z,13.40
2019-05-15T10:35:46.675Z,13.50
2019-05-15T10:38:19.373Z,13.40
2019-05-15T10:41:03.865Z,12.90
2019-05-15T10:43:25.633Z,13.20
2019-05-15T10:45:58.771Z,13.20
2019-05-15T10:48:30.751Z,13.40
2019-05-15T10:51:07.307Z,13.60
2019-05-15T10:53:38.944Z,13.60
2019-05-15T10:56:10.992Z,13.50
2019-05-15T10:58:42.833Z,13.80
2019-05-15T11:01:14.738Z,13.80
2019-05-15T11:03:49.264Z,13.60
2019-05-15T11:06:20.995Z,13.50
2019-05-15T11:08:52.878Z,13.50
2019-05-15T11:11:24.763Z,13.60
2019-05-15T11:14:00.233Z,13.80
2019-05-15T11:16:30.367Z,13.70
2019-05-15T11:19:02.303Z,13.70
2019-05-15T11:21:34.254Z,13.20
2019-05-15T11:24:08.607Z,13.40
2019-05-15T11:26:40.154Z,13.40
2019-05-15T11:29:11.910Z,13.40
2019-05-15T11:31:43.733Z,13.70
2019-05-15T11:34:18.398Z,13.80
2019-05-15T11:36:49.654Z,13.40
2019-05-15T11:39:21.475Z,13.60
2019-05-15T11:41:53.470Z,13.40
2019-05-15T11:44:25.195Z,13.20
2019-05-15T11:46:58.616Z,13.60
2019-05-15T11:49:31.188Z,13.80
2019-05-15T11:52:03.295Z,13.70
2019-05-15T11:54:35.267Z,13.60
2019-05-15T11:57:08.609Z,13.60
2019-05-15T11:59:45.213Z,13.80
2019-05-15T12:02:14.481Z,14.10
2019-05-15T12:04:46.284Z,14.10
2019-05-15T12:07:18.377Z,13.70
2019-05-15T12:09:50.658Z,13.80
2019-05-15T12:12:22.859Z,13.60
2019-05-15T12:14:55.083Z,13.50
2019-05-15T12:17:28.519Z,13.60
2019-05-15T12:20:05.758Z,13.70
2019-05-15T12:22:34.350Z,14.20
2019-05-15T12:25:09.708Z,14.50
2019-05-15T12:27:41.549Z,14.60
2019-05-15T12:30:13.911Z,14.70
2019-05-15T12:32:49.027Z,14.70
2019-05-15T12:35:20.645Z,14.80
2019-05-15T12:37:53.121Z,14.70
2019-05-15T13:00:57.881Z,14.20
2019-05-15T13:03:30.013Z,14.40
2019-05-15T13:06:01.907Z,14.20
2019-05-15T13:08:33.904Z,14.10
2019-05-15T13:11:10.061Z,14.30
2019-05-15T13:13:39.775Z,14.30
2019-05-15T13:16:11.912Z,14.20
2019-05-15T13:18:43.888Z,13.50
2019-05-15T13:21:20.589Z,13.50
2019-05-15T13:23:50.381Z,13.50
2019-05-15T13:26:26.671Z,13.60
2019-05-15T13:28:58.364Z,13.70
2019-05-15T13:31:30.533Z,13.60
2019-05-15T13:34:03.783Z,13.50
2019-05-15T13:36:35.720Z,13.30
2019-05-15T13:39:09.197Z,13.10
2019-05-15T13:41:41.371Z,13.20
2019-05-15T13:44:13.237Z,12.60
2019-05-15T13:46:45.385Z,12.40
2019-05-15T13:49:18.721Z,12.10
2019-05-15T13:51:50.867Z,11.70
2019-05-15T13:54:28.613Z,11.70
2019-05-15T13:57:00.622Z,11.80
2019-05-15T13:59:32.705Z,11.90
2019-05-15T14:02:04.532Z,12.00
2019-05-15T14:04:38.674Z,11.90
2019-05-15T14:07:10.612Z,11.60
2019-05-15T14:09:44.662Z,11.70
2019-05-15T14:12:17.971Z,11.60
2019-05-15T14:14:53.165Z,11.90
2019-05-15T14:17:28.691Z,12.10
2019-05-15T14:20:00.606Z,12.20
2019-05-15T14:22:33.120Z,12.30
2019-05-15T14:25:08.585Z,12.30
2019-05-15T14:27:40.285Z,12.60
2019-05-15T14:30:13.068Z,12.60
2019-05-15T14:32:45.001Z,12.80
2019-05-15T14:35:18.565Z,12.60
2019-05-15T14:38:02.516Z,12.60
2019-05-15T14:40:24.807Z,12.70
2019-05-15T14:42:59.166Z,12.90
2019-05-15T14:45:30.528Z,12.80
2019-05-15T14:48:02.887Z,12.80
2019-05-15T14:50:34.764Z,12.90
2019-05-15T14:53:09.298Z,13.00
2019-05-15T14:55:43.995Z,12.80
2019-05-15T14:58:14.280Z,12.80
2019-05-15T15:00:49.732Z,12.70
2019-05-15T15:03:20.147Z,12.70
2019-05-15T15:05:52.083Z,12.90
2019-05-15T15:08:25.321Z,13.20
2019-05-15T15:10:59.412Z,13.30
2019-05-15T15:13:32.269Z,13.50
2019-05-15T15:16:04.488Z,13.40
2019-05-15T15:18:38.451Z,13.70
2019-05-15T15:21:10.130Z,13.70
2019-05-15T15:23:42.319Z,13.70
2019-05-15T15:26:14.444Z,13.70
2019-05-15T15:28:48.895Z,13.80
2019-05-15T15:31:20.195Z,13.50
2019-05-15T15:33:52.229Z,13.30
2019-05-15T15:36:24.416Z,13.00
2019-05-15T15:38:58.638Z,13.00
2019-05-15T15:41:30.395Z,12.80
2019-05-15T15:44:02.604Z,13.00
2019-05-15T15:46:34.781Z,13.10
2019-05-15T15:49:08.791Z,12.80
2019-05-15T15:51:40.443Z,12.90
2019-05-15T15:54:12.549Z,12.70
2019-05-15T15:56:44.778Z,12.70
2019-05-15T15:59:18.210Z,12.80
2019-05-15T16:01:50.723Z,12.80
2019-05-15T16:04:23.257Z,12.60
2019-05-15T16:06:55.320Z,12.70
2019-05-15T16:09:28.132Z,12.80
2019-05-15T16:12:00.556Z,12.90
2019-05-15T16:14:32.739Z,12.80
2019-05-15T16:17:04.744Z,12.80
2019-05-15T16:19:38.887Z,12.80
2019-05-15T16:22:10.775Z,12.70
2019-05-15T16:24:42.861Z,12.70
2019-05-15T16:27:15.416Z,12.60
2019-05-15T16:29:47.552Z,12.60
2019-05-15T16:32:21.891Z,12.50
2019-05-15T16:34:53.348Z,12.40
2019-05-15T16:37:25.384Z,12.30
2019-05-15T16:39:59.873Z,12.10
2019-05-15T16:42:31.516Z,12.10
2019-05-15T16:45:03.831Z,11.90
2019-05-15T16:47:35.712Z,12.00
2019-05-15T16:50:08.146Z,12.10
2019-05-15T16:52:39.897Z,12.10
2019-05-15T16:55:11.965Z,11.70
2019-05-15T16:57:44.143Z,11.50
2019-05-15T17:00:18.697Z,11.70
2019-05-15T17:03:08.196Z,12.00
2019-05-15T17:05:25.336Z,11.80
2019-05-15T17:07:58.349Z,11.90
2019-05-15T17:10:30.245Z,11.90
2019-05-15T17:13:02.099Z,11.90
2019-05-15T17:15:34.166Z,11.70
2019-05-15T17:18:05.900Z,11.70
2019-05-15T17:20:38.029Z,11.60
2019-05-15T17:23:10.128Z,11.50
2019-05-15T17:25:42.392Z,11.50
2019-05-15T17:28:14.417Z,11.70
2019-05-15T17:30:48.865Z,11.70
2019-05-15T17:33:20.706Z,11.60
2019-05-15T17:35:52.800Z,11.70
2019-05-15T17:38:24.953Z,11.70
2019-05-15T17:40:57.864Z,11.70
2019-05-15T17:43:29.966Z,11.50
2019-05-15T17:46:01.773Z,11.30
2019-05-15T17:48:33.783Z,11.20
2019-05-15T17:51:05.918Z,11.20
2019-05-15T17:53:38.453Z,11.00
2019-05-15T17:56:10.269Z,11.00
2019-05-15T17:58:42.102Z,10.90
2019-05-15T18:01:14.072Z,10.90
2019-05-15T18:03:48.456Z,10.90
2019-05-15T18:06:20.294Z,10.90
2019-05-15T18:08:52.395Z,10.80
2019-05-15T18:11:24.152Z,10.90
2019-05-15T18:13:58.051Z,10.90
2019-05-15T18:16:29.870Z,10.70
2019-05-15T18:19:02.247Z,10.40
2019-05-15T18:21:34.316Z,10.50
2019-05-15T18:24:09.240Z,10.40
2019-05-15T18:26:41.526Z,10.50
2019-05-15T18:29:13.515Z,10.20
2019-05-15T18:31:47.912Z,10.10
2019-05-15T18:34:19.736Z,10.10
2019-05-15T18:36:51.561Z,10.10
2019-05-15T18:39:23.665Z,10.10
2019-05-15T18:41:57.744Z,10.00
2019-05-15T18:44:29.718Z,9.90
2019-05-15T18:47:01.870Z,9.90
2019-05-15T18:49:34.499Z,10.00
2019-05-15T18:52:08.634Z,10.10
2019-05-15T18:54:40.453Z,10.20
2019-05-15T18:57:12.715Z,10.30
2019-05-15T18:59:45.172Z,10.00
2019-05-15T19:02:19.205Z,9.90
2019-05-15T19:04:51.265Z,9.80
2019-05-15T19:07:23.192Z,10.00
2019-05-15T19:09:55.805Z,10.10
2019-05-15T19:12:28.287Z,10.20
2019-05-15T19:15:00.788Z,10.10
2019-05-15T19:17:33.204Z,10.00
2019-05-15T19:20:05.390Z,10.20
2019-05-15T19:22:40.835Z,10.00
2019-05-15T19:25:12.796Z,10.10
2019-05-15T19:27:45.374Z,10.20
2019-05-15T19:30:19.005Z,10.00
2019-05-15T19:32:51.158Z,9.90
2019-05-15T19:35:23.706Z,9.90
2019-05-15T19:37:58.237Z,9.70
2019-05-15T19:40:29.473Z,9.70
2019-05-15T19:43:03.994Z,9.70
2019-05-15T19:45:35.878Z,9.80
2019-05-15T19:48:08.997Z,9.70
2019-05-15T19:50:41.000Z,9.80
2019-05-15T19:53:14.340Z,9.90
2019-05-15T19:55:48.378Z,9.90
2019-05-15T19:58:20.709Z,9.90
2019-05-15T20:00:52.717Z,10.10
2019-05-15T20:03:24.881Z,10.10
2019-05-15T20:05:57.698Z,10.20
2019-05-15T20:08:30.384Z,10.10
2019-05-15T20:11:02.801Z,9.90
2019-05-15T20:13:34.907Z,9.90
2019-05-15T20:16:07.694Z,9.80
2019-05-15T20:18:43.277Z,9.70
2019-05-15T20:21:15.643Z,9.90
2019-05-15T20:23:48.896Z,9.90
2019-05-15T20:26:21.184Z,9.90
2019-05-15T20:28:53.799Z,9.90
2019-05-15T20:31:28.250Z,9.80
2019-05-15T20:34:05.636Z,9.80
2019-05-15T20:36:34.215Z,9.80
2019-05-15T20:39:08.283Z,9.90
2019-05-15T20:41:40.537Z,10.10
2019-05-15T20:44:12.556Z,10.10
2019-05-15T20:46:48.404Z,10.10
2019-05-15T20:49:19.548Z,10.20
2019-05-15T20:51:51.871Z,10.20
2019-05-15T20:54:23.691Z,10.20
2019-05-15T20:56:58.151Z,10.00
2019-05-15T20:59:30.221Z,10.10
2019-05-15T21:02:02.237Z,10.00
2019-05-15T21:04:34.664Z,9.90
2019-05-15T21:07:07.878Z,9.90
2019-05-15T21:09:40.378Z,10.10
2019-05-15T21:12:12.554Z,10.10
2019-05-15T21:14:44.715Z,9.90
2019-05-15T21:17:19.945Z,10.00
2019-05-15T21:19:51.561Z,10.10
2019-05-15T21:22:23.885Z,10.00
2019-05-15T21:24:55.633Z,10.00
2019-05-15T21:27:32.561Z,10.00
2019-05-15T21:30:01.849Z,10.10
2019-05-15T21:32:34.077Z,10.20
2019-05-15T21:35:08.775Z,10.30
2019-05-15T21:37:40.602Z,10.20
2019-05-15T21:40:12.984Z,10.20
2019-05-15T21:42:45.649Z,10.00
2019-05-15T21:45:18.312Z,10.00
2019-05-15T21:47:50.701Z,10.00
2019-05-15T21:50:22.701Z,10.10
2019-05-15T21:52:54.690Z,9.90
2019-05-15T21:55:28.847Z,9.90
2019-05-15T21:58:01.049Z,10.00
2019-05-15T22:00:38.241Z,9.90
2019-05-15T22:03:11.829Z,9.90
2019-05-15T22:05:43.699Z,9.90
2019-05-15T22:08:18.200Z,9.90
2019-05-15T22:10:50.245Z,9.90
2019-05-15T22:13:22.059Z,9.60
2019-05-15T22:15:54.039Z,9.70
2019-05-15T22:18:27.940Z,9.60
2019-05-15T22:20:59.654Z,9.80
2019-05-15T22:23:31.855Z,9.80
2019-05-15T22:26:04.016Z,9.90
2019-05-15T22:28:38.447Z,9.80
2019-05-15T22:31:10.513Z,9.80
2019-05-15T22:33:42.435Z,9.80
2019-05-15T22:36:14.839Z,9.60
2019-05-15T22:38:48.301Z,9.50
2019-05-15T22:41:20.649Z,9.60
2019-05-15T22:43:52.806Z,9.60
2019-05-15T22:46:24.792Z,9.60
2019-05-15T22:48:59.028Z,9.70
2019-05-15T22:51:30.810Z,9.70
2019-05-15T22:54:03.008Z,9.70
2019-05-15T22:56:35.093Z,9.60
2019-05-15T22:59:08.567Z,9.70
2019-05-15T23:01:40.581Z,9.90
2019-05-15T23:04:12.761Z,9.80
2019-05-15T23:06:45.028Z,9.50
2019-05-15T23:09:17.385Z,9.50
2019-05-15T23:11:49.310Z,9.60
2019-05-15T23:14:21.368Z,9.60
2019-05-15T23:16:53.738Z,9.50
2019-05-15T23:19:27.953Z,9.50
2019-05-15T23:21:59.668Z,9.40
2019-05-15T23:24:31.835Z,9.20
2019-05-15T23:27:03.704Z,9.10
2019-05-15T23:29:38.335Z,9.00
2019-05-15T23:32:09.738Z,9.00
2019-05-15T23:34:41.617Z,9.00
2019-05-15T23:37:13.765Z,9.00
2019-05-15T23:39:45.560Z,9.10
2019-05-15T23:42:18.471Z,9.30
2019-05-15T23:44:50.720Z,9.30
2019-05-15T23:47:23.023Z,9.40
2019-05-15T23:49:54.854Z,9.30
2019-05-15T23:52:26.828Z,9.00
2019-05-15T23:54:58.995Z,9.10
2019-05-15T23:57:31.079Z,9.20
